Time;durP1;ratioP1;P1;durP2;ratioP2;P2;SDS_P1;SDS_P2;PMS_P1;PMS_P2;Temp;Humidity;BMP_temperature;BMP_pressure;BME280_temperature;BME280_humidity;BME280_pressure;Samples;Min_cycle;Max_cycle;Signal;HPM_P1;HPM_P2
2022/12/02 00:00:26;;;;;;;;;27.00;23.75;;;;;8.25;68.18;101763.84;5059928;28;45046;-89
2022/12/02 00:02:55;;;;;;;;;26.25;24.75;;;;;8.14;68.20;101743.09;5069381;28;45364;-89
2022/12/02 00:05:31;;;;;;;;;33.50;23.25;;;;;8.37;68.06;101779.44;5079057;28;45037;-84
2022/12/02 00:07:59;;;;;;;;;30.00;24.25;;;;;8.47;68.37;101789.69;5056983;28;45292;-84
2022/12/02 00:10:31;;;;;;;;;31.25;26.50;;;;;8.43;68.47;101787.69;5052821;28;45589;-85
2022/12/02 00:13:18;;;;;;;;;25.25;21.50;;;;;8.60;68.32;101801.78;5052344;28;45273;-88
2022/12/02 00:15:46;;;;;;;;;26.75;23.50;;;;;8.46;68.48;101781.69;5054180;28;45135;-86
2022/12/02 00:18:14;;;;;;;;;31.75;26.50;;;;;8.49;68.57;101795.00;5053893;28;45167;-82
2022/12/02 00:20:40;;;;;;;;;28.25;24.50;;;;;8.55;68.64;101794.47;5071558;28;45781;-82
2022/12/02 00:23:05;;;;;;;;;30.50;28.50;;;;;8.26;68.56;101738.56;5053154;28;45194;-84
2022/12/02 00:25:31;;;;;;;;;30.00;25.50;;;;;7.59;68.64;101622.00;5071393;28;45532;-85
2022/12/02 00:27:57;;;;;;;;;28.25;24.75;;;;;8.26;68.71;101735.94;5071175;28;45115;-84
2022/12/02 00:30:22;;;;;;;;;22.25;21.50;;;;;7.97;68.78;101681.84;5069932;28;46054;-86
2022/12/02 00:32:47;;;;;;;;;25.25;23.25;;;;;8.10;68.60;101696.59;5071404;28;45403;-85
2022/12/02 00:35:14;;;;;;;;;38.00;29.33;;;;;7.77;68.89;101651.84;5071022;28;45295;-83
2022/12/02 00:37:40;;;;;;;;;35.50;28.00;;;;;7.99;68.83;101696.84;5071464;28;45325;-86
2022/12/02 00:40:05;;;;;;;;;33.33;29.00;;;;;7.83;68.84;101667.94;5070355;28;58736;-86
2022/12/02 00:42:31;;;;;;;;;28.00;24.75;;;;;8.07;69.01;101704.25;5069910;28;45184;-86
2022/12/02 00:47:40;;;;;;;;;29.25;26.75;;;;;7.89;68.81;101677.88;5071118;28;45092;-87
2022/12/02 00:50:06;;;;;;;;;29.25;25.50;;;;;8.22;69.13;101723.47;5052537;28;47579;-88
2022/12/02 00:52:31;;;;;;;;;38.00;29.75;;;;;7.79;69.00;101655.50;5070829;28;44930;-87
2022/12/02 00:54:56;;;;;;;;;28.33;24.00;;;;;7.88;69.49;101666.50;5068936;28;47993;-88
2022/12/02 00:57:22;;;;;;;;;34.33;28.00;;;;;7.83;69.21;101646.09;5050902;28;45384;-87
2022/12/02 00:59:47;;;;;;;;;30.67;29.00;;;;;8.38;69.37;101741.97;5050580;28;45727;-86
2022/12/02 01:02:13;;;;;;;;;31.75;27.25;;;;;8.28;69.03;101735.25;5050817;28;45310;-89
2022/12/02 01:04:38;;;;;;;;;26.25;24.75;;;;;7.99;69.34;101675.91;5050580;28;45318;-89
2022/12/02 01:07:03;;;;;;;;;32.00;26.75;;;;;8.11;69.34;101693.16;5049942;28;45285;-86
2022/12/02 01:09:28;;;;;;;;;33.00;26.67;;;;;7.73;69.30;101629.84;5049412;28;47400;-86
2022/12/02 01:11:54;;;;;;;;;30.33;27.67;;;;;8.36;69.40;101745.25;5032026;28;45772;-89
2022/12/02 01:14:19;;;;;;;;;28.00;24.67;;;;;7.84;69.57;101643.59;5050281;28;44967;-89
2022/12/02 01:16:45;;;;;;;;;34.75;31.50;;;;;8.13;69.43;101694.16;5066598;28;45291;-88
2022/12/02 01:19:10;;;;;;;;;32.50;24.50;;;;;8.15;69.38;101697.75;5070663;28;45534;-87
2022/12/02 01:21:35;;;;;;;;;28.67;26.00;;;;;8.50;69.33;101761.03;5070372;28;45692;-89
2022/12/02 01:24:00;;;;;;;;;34.33;32.00;;;;;7.90;69.63;101646.56;5070712;28;45135;-88
2022/12/02 01:26:26;;;;;;;;;35.33;30.33;;;;;8.18;69.88;101690.09;5070155;28;45175;-83
2022/12/02 01:28:51;;;;;;;;;35.67;30.00;;;;;8.13;69.67;101688.91;5036544;28;47219;-87
2022/12/02 01:31:17;;;;;;;;;35.50;29.50;;;;;8.28;69.71;101688.09;5050299;28;45199;-85
2022/12/02 01:33:42;;;;;;;;;23.50;19.75;;;;;8.60;69.61;101735.38;5050349;28;45335;-85
2022/12/02 01:36:07;;;;;;;;;23.00;20.50;;;;;8.59;69.63;101755.44;5050300;28;45172;-86
2022/12/02 01:38:33;;;;;;;;;30.75;26.00;;;;;8.28;69.72;101680.25;5050075;28;46247;-88
2022/12/02 01:40:59;;;;;;;;;29.67;28.00;;;;;8.31;69.79;101681.22;5049891;28;50291;-88
2022/12/02 01:43:25;;;;;;;;;30.25;27.25;;;;;8.44;69.35;101699.50;5048988;28;45081;-82
2022/12/02 01:45:51;;;;;;;;;30.75;24.75;;;;;8.18;69.39;101656.97;5031006;28;45528;-83
2022/12/02 01:48:17;;;;;;;;;30.75;25.00;;;;;8.21;69.31;101669.31;5048739;28;45777;-83
2022/12/02 01:50:42;;;;;;;;;31.75;27.25;;;;;8.31;69.02;101678.59;5049324;28;45401;-84
2022/12/02 01:53:08;;;;;;;;;28.50;25.50;;;;;8.13;69.18;101645.31;5049017;28;45002;-82
2022/12/02 01:55:33;;;;;;;;;33.25;26.00;;;;;8.58;69.23;101730.03;5049030;28;45011;-82
2022/12/02 01:57:59;;;;;;;;;30.25;26.25;;;;;8.63;69.21;101740.78;5048342;28;45491;-85
2022/12/02 02:00:25;;;;;;;;;34.25;29.00;;;;;8.74;69.20;101758.03;5048558;28;45201;-82
2022/12/02 02:02:51;;;;;;;;;30.50;28.00;;;;;8.73;69.28;101765.00;5048993;28;45261;-81
2022/12/02 02:05:20;;;;;;;;;32.75;28.00;;;;;8.28;69.08;101695.97;5048209;28;45214;-83
2022/12/02 02:07:48;;;;;;;;;30.25;26.00;;;;;8.65;69.25;101754.88;5048632;28;45447;-81
2022/12/02 02:10:15;;;;;;;;;34.75;28.25;;;;;8.04;68.96;101659.56;5048812;28;45621;-81
2022/12/02 02:12:41;;;;;;;;;31.50;28.25;;;;;8.18;69.13;101693.63;5046436;28;45219;-82
2022/12/02 02:15:08;;;;;;;;;32.25;28.25;;;;;8.35;69.49;101723.41;5048992;28;45001;-82
2022/12/02 02:17:34;;;;;;;;;30.00;25.75;;;;;8.18;69.18;101679.63;5047861;28;46439;-82
2022/12/02 02:20:02;;;;;;;;;29.00;28.25;;;;;8.31;69.31;101713.56;5047839;28;44982;-82
2022/12/02 02:23:05;;;;;;;;;29.50;24.75;;;;;8.61;69.42;101769.50;5046524;28;45359;-82
2022/12/02 02:25:52;;;;;;;;;39.75;30.75;;;;;8.07;69.38;101693.78;5035391;28;45331;-81
2022/12/02 02:28:18;;;;;;;;;32.75;26.50;;;;;8.59;69.42;101758.03;5047012;28;45265;-84
2022/12/02 02:30:44;;;;;;;;;37.00;30.00;;;;;8.02;69.58;101659.47;5048155;28;45327;-81
2022/12/02 02:33:13;;;;;;;;;33.75;29.50;;;;;7.86;69.49;101615.78;5048643;28;45165;-89
2022/12/02 02:35:41;;;;;;;;;28.75;25.50;;;;;7.96;69.41;101628.59;5048588;28;45320;-82
2022/12/02 02:38:10;;;;;;;;;35.25;27.25;;;;;7.93;69.76;101627.50;5047158;28;47137;-82
2022/12/02 02:40:36;;;;;;;;;34.00;28.00;;;;;7.83;69.44;101607.75;5048856;28;45638;-88
2022/12/02 02:43:03;;;;;;;;;36.25;29.25;;;;;8.05;69.78;101633.47;5048888;28;45455;-82
2022/12/02 02:45:32;;;;;;;;;32.75;28.75;;;;;8.64;69.52;101730.38;5048379;28;45041;-84
2022/12/02 02:47:59;;;;;;;;;33.50;28.50;;;;;8.64;69.62;101738.25;5048326;28;45675;-83
2022/12/02 02:50:26;;;;;;;;;30.25;28.25;;;;;8.23;69.45;101665.09;5048196;28;45099;-87
2022/12/02 02:52:52;;;;;;;;;35.25;31.25;;;;;8.20;69.70;101659.66;5049514;28;45448;-86
2022/12/02 02:55:21;;;;;;;;;35.00;29.25;;;;;8.51;69.50;101701.66;5052379;28;45283;-88
2022/12/02 02:57:48;;;;;;;;;28.50;25.75;;;;;8.16;69.69;101655.94;5051861;28;45251;-87
2022/12/02 03:00:14;;;;;;;;;38.75;33.50;;;;;8.21;69.48;101653.59;5051970;28;45626;-85
2022/12/02 03:02:42;;;;;;;;;31.00;25.25;;;;;8.54;69.55;101694.00;5051646;28;45190;-85
2022/12/02 03:05:08;;;;;;;;;33.25;29.75;;;;;8.07;69.64;101608.28;5051620;28;45325;-83
2022/12/02 03:07:34;;;;;;;;;35.00;30.25;;;;;8.23;69.41;101634.56;5051611;28;45558;-85
2022/12/02 03:10:00;;;;;;;;;33.75;27.50;;;;;8.69;69.22;101715.84;5051505;28;45091;-85
2022/12/02 03:12:26;;;;;;;;;35.50;29.25;;;;;8.23;69.32;101644.13;5049756;28;45358;-88
2022/12/02 03:14:52;;;;;;;;;34.50;28.75;;;;;8.51;69.73;101678.09;5052817;28;45276;-87
2022/12/02 03:17:17;;;;;;;;;37.25;30.75;;;;;8.25;69.29;101630.28;5051622;28;45208;-87
2022/12/02 03:19:43;;;;;;;;;43.25;32.00;;;;;7.93;69.56;101590.84;5051611;28;45085;-89
2022/12/02 03:22:12;;;;;;;;;38.75;30.50;;;;;8.26;69.35;101629.47;5052252;28;45150;-81
2022/12/02 03:24:38;;;;;;;;;30.00;27.25;;;;;7.84;69.04;101567.69;5050542;28;45176;-88
2022/12/02 03:27:05;;;;;;;;;36.75;30.00;;;;;8.70;69.25;101707.16;5051481;28;45515;-86
2022/12/02 03:29:32;;;;;;;;;40.00;32.75;;;;;8.06;69.21;101592.47;5051749;28;45653;-90
2022/12/02 03:31:59;;;;;;;;;32.75;27.50;;;;;8.30;69.29;101640.16;5052078;28;45005;-89
2022/12/02 03:34:24;;;;;;;;;36.50;30.75;;;;;8.13;69.42;101608.66;5050045;28;45183;-89
2022/12/02 03:36:50;;;;;;;;;31.75;24.50;;;;;8.17;69.64;101609.72;5052324;28;45050;-90
2022/12/02 03:39:16;;;;;;;;;29.25;27.25;;;;;8.59;69.43;101676.81;5052072;28;45209;-89
2022/12/02 03:41:42;;;;;;;;;40.00;29.25;;;;;8.13;69.00;101600.81;5051293;28;45249;-90
2022/12/02 03:44:08;;;;;;;;;36.00;30.00;;;;;8.59;69.16;101671.56;5051924;28;46148;-90
2022/12/02 03:46:33;;;;;;;;;40.00;31.00;;;;;8.26;69.07;101612.88;5051719;28;45195;-90
2022/12/02 03:49:00;;;;;;;;;43.33;32.00;;;;;8.27;69.38;101610.34;5051633;28;51371;-89
2022/12/02 03:51:26;;;;;;;;;44.50;35.75;;;;;8.28;69.22;101617.41;5051316;28;45030;-84
2022/12/02 03:53:51;;;;;;;;;32.25;25.75;;;;;8.07;68.96;101569.00;5051106;28;45239;-84
2022/12/02 03:56:17;;;;;;;;;40.00;32.00;;;;;8.73;69.19;101691.63;5049864;28;45525;-83
2022/12/02 03:58:49;;;;;;;;;32.50;29.75;;;;;8.74;69.25;101688.16;5053340;28;45195;-79
2022/12/02 04:01:15;;;;;;;;;37.75;34.00;;;;;8.71;69.36;101681.84;5070701;28;45249;-83
2022/12/02 04:03:41;;;;;;;;;31.25;29.50;;;;;8.32;68.87;101607.06;5041588;28;45165;-83
2022/12/02 04:06:06;;;;;;;;;34.50;28.50;;;;;8.16;69.15;101561.69;5049804;28;45712;-86
2022/12/02 04:08:32;;;;;;;;;35.50;28.75;;;;;8.77;69.12;101669.13;5050955;28;45353;-84
2022/12/02 04:10:57;;;;;;;;;35.33;30.00;;;;;8.36;69.13;101601.19;5050654;28;45216;-86
2022/12/02 04:13:23;;;;;;;;;45.50;36.25;;;;;8.30;68.99;101598.25;5050030;28;45348;-82
2022/12/02 04:15:48;;;;;;;;;40.25;33.25;;;;;8.78;68.83;101674.44;5042376;28;46951;-84
2022/12/02 04:18:13;;;;;;;;;31.75;27.00;;;;;8.71;68.80;101673.97;5070255;28;45027;-82
2022/12/02 04:20:39;;;;;;;;;37.00;30.00;;;;;8.20;68.96;101574.13;5071196;28;45494;-82
2022/12/02 04:23:04;;;;;;;;;35.25;30.50;;;;;8.62;68.98;101644.63;5071027;28;45128;-83
2022/12/02 04:25:29;;;;;;;;;40.00;30.75;;;;;8.14;69.27;101554.56;5070343;28;45203;-87
2022/12/02 04:27:55;;;;;;;;;32.75;28.75;;;;;8.64;69.17;101622.94;5071092;28;44996;-83
2022/12/02 04:30:20;;;;;;;;;37.25;29.25;;;;;8.04;68.99;101526.97;5070378;28;45033;-83
2022/12/02 04:32:47;;;;;;;;;41.50;30.00;;;;;8.31;68.65;101566.00;5070190;28;45060;-86
2022/12/02 04:35:12;;;;;;;;;33.33;30.67;;;;;8.08;68.59;101510.63;5041342;28;47277;-84
2022/12/02 04:37:37;;;;;;;;;31.00;28.50;;;;;8.23;68.64;101549.84;5050493;28;45323;-83
2022/12/02 04:40:04;;;;;;;;;36.33;30.33;;;;;7.96;68.35;101510.81;5050980;28;45129;-83
2022/12/02 04:42:29;;;;;;;;;30.00;26.00;;;;;8.04;68.83;101521.72;5032597;28;45553;-86
2022/12/02 04:44:54;;;;;;;;;31.33;28.33;;;;;8.12;68.58;101549.22;5050033;28;52187;-83
2022/12/02 04:47:20;;;;;;;;;34.00;29.00;;;;;8.74;68.72;101654.09;5049309;28;45420;-84
2022/12/02 04:49:45;;;;;;;;;34.50;26.75;;;;;7.99;68.65;101528.41;5032311;28;44991;-83
2022/12/02 04:52:10;;;;;;;;;34.00;29.25;;;;;8.17;68.81;101567.81;5058718;28;45148;-82
2022/12/02 04:54:36;;;;;;;;;43.67;34.33;;;;;7.91;68.95;101519.22;5051752;28;47162;-82
2022/12/02 04:57:01;;;;;;;;;31.33;25.67;;;;;8.19;68.82;101556.63;5069987;28;45190;-82
2022/12/02 04:59:26;;;;;;;;;33.67;30.67;;;;;8.73;68.83;101644.44;5039612;28;45105;-83
2022/12/02 05:01:52;;;;;;;;;32.50;30.00;;;;;8.08;68.68;101533.25;5049395;28;45365;-83
2022/12/02 05:04:17;;;;;;;;;38.33;34.33;;;;;8.18;68.86;101546.09;5061782;28;45516;-84
2022/12/02 05:06:42;;;;;;;;;37.33;34.33;;;;;8.59;68.64;101629.66;5069196;28;51025;-81
2022/12/02 05:09:07;;;;;;;;;40.67;34.67;;;;;8.42;68.75;101589.41;5050260;28;45441;-87
2022/12/02 05:11:33;;;;;;;;;28.67;25.67;;;;;8.33;68.73;101567.00;5049547;28;45200;-82
2022/12/02 05:13:58;;;;;;;;;35.00;30.00;;;;;8.25;68.88;101570.06;5049644;28;49767;-81
2022/12/02 05:16:23;;;;;;;;;34.00;32.00;;;;;8.27;68.83;101557.97;5048156;28;45050;-86
2022/12/02 05:18:49;;;;;;;;;39.33;33.00;;;;;7.99;68.43;101515.31;5049946;28;45171;-86
2022/12/02 05:21:14;;;;;;;;;38.75;30.50;;;;;8.00;68.63;101507.56;5049408;28;46126;-82
2022/12/02 05:23:39;;;;;;;;;36.75;30.50;;;;;8.32;68.57;101557.31;5067994;28;46036;-82
2022/12/02 05:26:05;;;;;;;;;46.33;32.33;;;;;8.31;68.68;101551.19;5062948;28;46211;-83
2022/12/02 05:28:30;;;;;;;;;36.50;32.50;;;;;8.52;68.48;101580.31;5049192;28;45021;-82
2022/12/02 05:30:55;;;;;;;;;39.25;31.00;;;;;8.27;68.23;101549.19;5048464;28;44921;-83
2022/12/02 05:33:21;;;;;;;;;43.00;35.67;;;;;8.12;68.90;101509.06;5048812;28;45282;-84
2022/12/02 05:35:46;;;;;;;;;44.33;36.33;;;;;8.11;68.48;101507.25;5015391;28;45242;-83
2022/12/02 05:38:11;;;;;;;;;35.00;30.33;;;;;8.22;68.87;101541.06;5038102;28;45544;-84
2022/12/02 05:40:36;;;;;;;;;39.67;35.33;;;;;8.17;68.50;101529.44;5069122;28;45361;-88
2022/12/02 05:43:18;;;;;;;;;41.00;35.33;;;;;8.04;68.88;101510.34;5030855;28;45197;-89
2022/12/02 05:45:43;;;;;;;;;41.25;33.75;;;;;8.63;68.85;101605.44;5028993;28;45298;-88
2022/12/02 05:48:11;;;;;;;;;42.00;35.00;;;;;8.30;68.76;101528.44;5049335;28;45043;-87
2022/12/02 05:50:36;;;;;;;;;36.75;33.50;;;;;8.10;68.77;101506.34;5050484;28;45167;-86
2022/12/02 05:53:03;;;;;;;;;43.25;35.25;;;;;8.24;68.69;101525.47;5030646;28;45734;-88
2022/12/02 05:55:29;;;;;;;;;36.25;30.25;;;;;8.00;68.67;101481.38;5011426;28;45174;-87
2022/12/02 05:57:59;;;;;;;;;39.25;33.00;;;;;8.30;68.47;101543.25;5029744;28;45405;-90
2022/12/02 06:00:24;;;;;;;;;39.00;29.25;;;;;8.75;69.31;101608.72;5045069;28;45064;-82
2022/12/02 06:03:00;;;;;;;;;39.50;34.50;;;;;8.33;68.44;101531.22;5031895;28;45124;-83
2022/12/02 06:05:39;;;;;;;;;38.75;32.00;;;;;8.19;68.75;101513.84;5028280;28;45029;-82
2022/12/02 06:08:20;;;;;;;;;38.25;33.25;;;;;8.79;68.76;101605.47;5028346;28;45334;-83
2022/12/02 06:10:52;;;;;;;;;40.25;31.00;;;;;7.92;69.14;101445.09;5009896;28;45255;-82
2022/12/02 06:13:25;;;;;;;;;42.00;35.25;;;;;8.25;69.05;101501.97;5028079;28;45711;-82
2022/12/02 06:15:51;;;;;;;;;34.50;29.00;;;;;8.65;68.98;101566.19;5057436;28;45550;-82
2022/12/02 06:18:22;;;;;;;;;40.25;35.25;;;;;8.40;68.81;101512.44;5028966;28;45361;-82
2022/12/02 06:20:53;;;;;;;;;45.00;35.50;;;;;8.50;68.88;101534.81;5028650;28;45185;-83
2022/12/02 06:23:20;;;;;;;;;40.25;34.75;;;;;8.43;69.14;101520.47;5027146;28;45389;-83
2022/12/02 06:25:48;;;;;;;;;43.50;36.50;;;;;8.68;68.94;101561.13;5028737;28;45341;-87
2022/12/02 06:28:21;;;;;;;;;39.75;35.50;;;;;8.83;68.78;101593.44;5027480;28;45257;-83
2022/12/02 06:30:47;;;;;;;;;38.75;26.50;;;;;8.19;68.60;101490.28;5026375;28;45242;-84
2022/12/02 06:33:25;;;;;;;;;36.75;33.75;;;;;8.50;68.52;101540.06;5028380;28;45735;-90
2022/12/02 06:35:52;;;;;;;;;40.75;32.75;;;;;8.78;68.58;101597.53;5028775;28;45466;-87
2022/12/02 06:38:27;;;;;;;;;41.50;36.00;;;;;8.11;68.68;101479.34;5032192;28;45260;-85
2022/12/02 06:40:52;;;;;;;;;42.25;36.25;;;;;8.05;68.67;101463.31;5028748;28;45168;-87
2022/12/02 06:43:25;;;;;;;;;39.75;34.50;;;;;8.26;68.72;101498.53;5044768;28;45178;-83
2022/12/02 06:45:51;;;;;;;;;41.00;33.00;;;;;8.58;68.63;101557.09;5044944;28;45347;-84
2022/12/02 06:48:26;;;;;;;;;45.50;36.75;;;;;8.78;68.88;101584.41;5047940;28;45372;-87
2022/12/02 06:50:55;;;;;;;;;41.25;33.50;;;;;8.57;68.64;101559.63;5016815;28;45795;-83
2022/12/02 06:53:36;;;;;;;;;39.00;33.00;;;;;8.37;68.51;101521.84;5046885;28;47754;-84
2022/12/02 06:56:10;;;;;;;;;40.75;30.00;;;;;8.75;68.74;101579.88;5059552;28;45057;-88
2022/12/02 06:58:40;;;;;;;;;48.50;36.75;;;;;8.76;68.74;101579.06;5029732;28;45256;-89
2022/12/02 07:01:14;;;;;;;;;44.00;34.50;;;;;8.59;69.07;101551.03;5046532;28;45009;-83
2022/12/02 07:04:04;;;;;;;;;43.50;39.00;;;;;8.32;68.90;101490.13;5044195;28;45281;-87
2022/12/02 07:06:31;;;;;;;;;42.00;33.50;;;;;8.11;68.68;101455.78;5041425;28;45619;-84
2022/12/02 07:09:00;;;;;;;;;38.50;34.50;;;;;8.27;68.57;101492.50;5040488;28;45121;-85
2022/12/02 07:11:50;;;;;;;;;38.75;33.00;;;;;8.77;68.82;101580.00;5046954;28;45406;-87
2022/12/02 07:14:31;;;;;;;;;41.50;34.00;;;;;8.77;69.01;101583.50;5047044;28;46122;-88
2022/12/02 07:17:23;;;;;;;;;40.00;34.00;;;;;8.37;68.88;101513.97;5042620;28;45264;-83
2022/12/02 07:20:14;;;;;;;;;49.50;36.25;;;;;8.26;68.83;101490.69;5027325;28;45381;-86
2022/12/02 07:22:55;;;;;;;;;35.50;33.25;;;;;8.17;68.91;101469.22;5008847;28;45482;-84
2022/12/02 07:25:20;;;;;;;;;39.00;35.75;;;;;8.79;68.99;101575.72;5037709;28;45302;-84
2022/12/02 07:27:48;;;;;;;;;42.25;35.25;;;;;8.70;69.36;101576.13;5029780;28;45184;-84
2022/12/02 07:30:23;;;;;;;;;38.00;34.50;;;;;8.76;69.14;101576.44;5050914;28;45222;-85
2022/12/02 07:32:48;;;;;;;;;39.50;36.50;;;;;8.06;69.23;101454.63;5055708;28;45256;-84
2022/12/02 07:35:14;;;;;;;;;42.00;38.33;;;;;8.41;69.04;101521.19;5046993;28;45259;-88
2022/12/02 07:37:39;;;;;;;;;42.75;37.75;;;;;8.13;69.38;101482.09;5046753;28;45101;-87
2022/12/02 07:40:06;;;;;;;;;41.00;34.67;;;;;7.90;69.16;101428.44;5050157;28;45213;-90
2022/12/02 07:42:31;;;;;;;;;49.50;37.50;;;;;8.77;69.17;101580.91;5050556;28;45337;-90
2022/12/02 07:44:56;;;;;;;;;39.75;35.50;;;;;8.06;69.47;101465.09;5050598;28;45958;-89
2022/12/02 07:47:22;;;;;;;;;41.25;35.50;;;;;7.99;69.27;101453.41;5031553;28;45101;-90
2022/12/02 07:49:47;;;;;;;;;48.67;37.33;;;;;7.97;69.20;101441.03;5050983;28;45255;-88
2022/12/02 07:52:12;;;;;;;;;50.75;37.25;;;;;8.05;69.15;101465.94;5050465;28;45069;-85
2022/12/02 07:54:38;;;;;;;;;45.67;36.33;;;;;8.55;69.48;101549.06;5049992;28;45454;-88
2022/12/02 07:57:03;;;;;;;;;44.00;35.33;;;;;8.69;69.44;101583.91;5050453;28;45145;-86
2022/12/02 07:59:28;;;;;;;;;50.25;39.75;;;;;8.23;69.62;101507.97;5049986;28;45122;-88
2022/12/02 08:01:54;;;;;;;;;44.75;35.75;;;;;8.10;69.48;101481.91;5050266;28;44923;-84
2022/12/02 08:04:19;;;;;;;;;54.33;38.67;;;;;8.68;69.80;101598.72;5048339;28;47614;-88
2022/12/02 08:06:44;;;;;;;;;46.67;33.67;;;;;8.71;69.86;101585.78;5032075;28;45108;-88
2022/12/02 08:09:10;;;;;;;;;43.50;39.00;;;;;8.51;69.58;101547.09;5051687;28;44955;-87
2022/12/02 08:11:35;;;;;;;;;40.75;35.50;;;;;8.72;69.70;101582.38;5031158;28;45320;-88
2022/12/02 08:14:02;;;;;;;;;42.75;35.50;;;;;8.08;69.74;101471.34;5052440;28;45795;-86
2022/12/02 08:16:28;;;;;;;;;47.00;37.75;;;;;8.27;69.78;101502.06;5054509;28;45586;-88
2022/12/02 08:18:53;;;;;;;;;49.50;38.75;;;;;8.68;70.31;101596.09;5041395;28;45372;-88
2022/12/02 08:21:19;;;;;;;;;40.25;33.25;;;;;8.69;70.46;101599.63;5051799;28;45131;-89
2022/12/02 08:23:44;;;;;;;;;44.00;33.50;;;;;7.86;70.44;101436.91;5051711;28;45419;-88
2022/12/02 08:26:09;;;;;;;;;47.75;39.25;;;;;7.99;70.54;101460.34;5050263;28;45053;-89
2022/12/02 08:28:35;;;;;;;;;41.50;36.50;;;;;8.06;70.99;101483.44;5034096;28;45194;-88
2022/12/02 08:31:00;;;;;;;;;49.25;38.00;;;;;8.00;70.97;101478.75;5068675;28;45146;-88
2022/12/02 08:33:26;;;;;;;;;41.25;35.00;;;;;7.92;71.13;101450.34;5043856;28;45148;-87
2022/12/02 08:35:51;;;;;;;;;48.25;36.00;;;;;8.47;70.88;101560.81;5028290;28;45224;-88
2022/12/02 08:38:17;;;;;;;;;48.75;37.00;;;;;8.00;71.25;101483.09;5049480;28;45067;-88
2022/12/02 08:40:42;;;;;;;;;46.00;39.00;;;;;7.91;71.58;101465.13;5069630;28;45161;-89
2022/12/02 08:43:08;;;;;;;;;40.75;35.25;;;;;8.16;71.52;101517.16;5060555;28;45260;-88
2022/12/02 08:45:33;;;;;;;;;40.50;36.00;;;;;8.64;71.86;101586.25;5050990;28;45056;-88
2022/12/02 08:47:59;;;;;;;;;38.25;33.25;;;;;8.05;71.56;101483.34;5035207;28;45245;-88
2022/12/02 08:50:24;;;;;;;;;45.50;39.25;;;;;8.47;71.70;101574.84;5022157;28;45347;-89
2022/12/02 08:52:50;;;;;;;;;45.50;36.75;;;;;7.88;71.03;101477.16;5046869;28;46379;-87
2022/12/02 08:55:15;;;;;;;;;41.50;33.75;;;;;7.72;71.36;101447.50;5047686;28;45206;-86
2022/12/02 08:57:41;;;;;;;;;43.25;37.75;;;;;8.22;71.77;101527.97;5050911;28;45492;-90
2022/12/02 09:00:08;;;;;;;;;50.00;38.75;;;;;8.46;71.67;101565.16;5051261;28;45073;-88
2022/12/02 09:02:33;;;;;;;;;45.00;36.00;;;;;8.14;71.50;101504.81;5053984;28;45250;-88
2022/12/02 09:04:59;;;;;;;;;47.00;40.00;;;;;8.23;71.49;101519.34;5061806;28;45095;-86
2022/12/02 09:07:24;;;;;;;;;48.50;37.25;;;;;8.02;71.63;101474.50;5059167;28;45145;-84
2022/12/02 09:09:50;;;;;;;;;44.00;36.50;;;;;8.21;71.39;101507.84;5065773;28;44922;-87
2022/12/02 09:12:15;;;;;;;;;50.00;39.50;;;;;8.56;71.49;101558.72;5067565;28;45221;-87
2022/12/02 09:14:41;;;;;;;;;53.25;39.75;;;;;8.41;71.65;101508.09;5058017;28;45092;-89
2022/12/02 09:17:06;;;;;;;;;53.25;41.25;;;;;8.14;71.40;101444.59;5063111;28;44988;-87
2022/12/02 09:19:31;;;;;;;;;53.00;42.25;;;;;8.15;71.32;101449.00;5059894;28;45080;-87
2022/12/02 09:21:57;;;;;;;;;47.33;39.00;;;;;8.23;71.25;101466.97;5062018;28;45080;-86
2022/12/02 09:24:22;;;;;;;;;45.67;39.00;;;;;8.15;70.95;101463.00;5057464;28;44789;-86
2022/12/02 09:26:47;;;;;;;;;42.00;38.00;;;;;8.30;71.40;101481.28;5050309;28;51414;-88
2022/12/02 09:29:13;;;;;;;;;42.25;38.75;;;;;8.35;71.43;101482.44;5048860;28;45093;-87
2022/12/02 09:31:38;;;;;;;;;43.25;38.50;;;;;8.52;71.22;101523.63;5048261;28;47426;-88
2022/12/02 09:34:04;;;;;;;;;56.75;42.00;;;;;8.74;71.07;101559.75;5048652;28;45270;-87
2022/12/02 09:36:29;;;;;;;;;49.75;41.50;;;;;8.27;71.04;101468.00;5048931;28;45200;-88
2022/12/02 09:38:55;;;;;;;;;42.75;38.75;;;;;8.35;70.93;101476.31;5049042;28;45116;-87
2022/12/02 09:41:20;;;;;;;;;47.75;39.75;;;;;8.86;70.75;101575.22;5048098;28;45536;-88
2022/12/02 09:43:46;;;;;;;;;51.75;40.75;;;;;8.41;70.84;101495.00;5048564;28;45163;-90
2022/12/02 09:46:11;;;;;;;;;52.00;40.75;;;;;8.86;70.91;101558.59;5047398;28;45551;-88
2022/12/02 09:48:37;;;;;;;;;45.00;39.75;;;;;8.55;71.35;101517.63;5046244;28;45284;-84
2022/12/02 09:51:04;;;;;;;;;55.00;42.75;;;;;8.85;71.01;101580.41;5048850;28;45415;-87
2022/12/02 09:53:36;;;;;;;;;59.75;44.00;;;;;8.30;70.71;101478.66;5048684;28;45179;-87
2022/12/02 09:56:02;;;;;;;;;50.00;40.00;;;;;8.85;70.71;101562.06;5049480;28;45365;-89
2022/12/02 09:58:28;;;;;;;;;45.50;39.00;;;;;8.20;70.53;101442.31;5039875;28;45200;-90
2022/12/02 10:00:54;;;;;;;;;49.75;40.50;;;;;8.01;70.61;101416.81;5028111;28;45461;-89
2022/12/02 10:03:27;;;;;;;;;46.25;39.25;;;;;8.72;70.84;101545.66;5010190;28;45515;-89
2022/12/02 10:05:53;;;;;;;;;49.25;38.75;;;;;8.14;70.52;101435.03;5010432;28;45089;-88
2022/12/02 10:08:26;;;;;;;;;59.50;44.00;;;;;8.77;70.39;101554.69;5017309;28;45363;-89
2022/12/02 10:10:55;;;;;;;;;48.75;40.00;;;;;8.42;70.53;101475.84;5047396;28;47211;-90
2022/12/02 10:13:23;;;;;;;;;56.00;40.75;;;;;8.14;70.59;101423.66;5048113;28;45363;-88
2022/12/02 10:15:49;;;;;;;;;54.25;43.50;;;;;8.01;70.65;101395.88;5047960;28;45279;-88
2022/12/02 10:18:18;;;;;;;;;53.00;42.25;;;;;8.39;70.36;101466.13;5047533;28;45802;-86
2022/12/02 10:20:43;;;;;;;;;52.75;41.75;;;;;8.11;70.50;101400.81;5047779;28;45525;-84
2022/12/02 10:23:26;;;;;;;;;48.75;39.00;;;;;8.21;70.50;101413.59;5049086;28;45234;-88
2022/12/02 10:26:12;;;;;;;;;49.50;41.00;;;;;8.15;70.60;101397.56;5058617;28;44987;-91
2022/12/02 10:28:39;;;;;;;;;49.25;42.25;;;;;8.84;70.50;101520.94;5054844;28;44996;-86
2022/12/02 10:31:08;;;;;;;;;54.25;39.50;;;;;8.70;70.47;101475.63;5018530;28;46927;-88
2022/12/02 10:33:39;;;;;;;;;59.50;43.25;;;;;8.79;70.73;101508.47;5043546;28;45287;-92
2022/12/02 10:36:06;;;;;;;;;57.50;46.00;;;;;8.88;70.11;101510.69;5049292;28;45314;-89
2022/12/02 10:38:40;;;;;;;;;63.25;46.50;;;;;8.83;70.27;101487.69;5048302;28;45426;-91
2022/12/02 10:41:24;;;;;;;;;53.75;42.25;;;;;8.60;70.08;101436.66;5048633;28;45506;-86
2022/12/02 10:43:52;;;;;;;;;56.25;45.00;;;;;9.01;70.01;101512.22;5048375;28;45334;-88
2022/12/02 10:46:19;;;;;;;;;54.00;41.75;;;;;8.87;69.89;101490.56;5046995;28;45040;-87
2022/12/02 10:48:45;;;;;;;;;53.75;41.50;;;;;8.99;69.91;101517.41;5051065;28;45009;-93
2022/12/02 10:51:16;;;;;;;;;58.75;46.25;;;;;8.33;69.80;101404.63;5051197;28;45664;-89
2022/12/02 10:53:44;;;;;;;;;54.00;43.00;;;;;8.38;69.82;101390.09;5054202;28;45238;-88
2022/12/02 10:56:19;;;;;;;;;50.00;41.25;;;;;8.68;69.86;101441.50;5054691;28;45573;-91
2022/12/02 10:58:46;;;;;;;;;59.75;43.00;;;;;8.69;69.93;101422.31;5048649;28;45245;-94
2022/12/02 11:01:12;;;;;;;;;57.25;43.25;;;;;8.73;69.87;101419.06;5045323;28;45635;-91
2022/12/02 11:03:39;;;;;;;;;56.25;42.00;;;;;8.96;69.64;101463.91;5048486;28;45727;-92
2022/12/02 11:06:12;;;;;;;;;56.00;43.25;;;;;8.64;69.79;101417.66;5046727;28;45491;-92
2022/12/02 11:08:40;;;;;;;;;57.50;44.75;;;;;9.07;69.85;101482.84;5044489;28;45467;-84
2022/12/02 11:11:39;;;;;;;;;55.50;42.75;;;;;8.34;69.85;101348.78;5049136;28;45988;-87
2022/12/02 11:14:08;;;;;;;;;62.75;45.50;;;;;8.78;69.70;101417.56;4993996;28;45762;-86
2022/12/02 11:16:34;;;;;;;;;53.50;41.25;;;;;8.94;69.63;101448.09;5030822;28;45138;-88
2022/12/02 11:19:10;;;;;;;;;58.67;46.67;;;;;9.07;69.60;101464.50;5039213;28;45198;-87
2022/12/02 11:21:38;;;;;;;;;56.00;44.75;;;;;9.08;69.54;101458.41;5047372;28;45723;-85